createdAt,value
2022-11-08T00:00:44.209Z,61.69
2022-11-08T00:03:12.170Z,61.50
2022-11-08T00:05:58.035Z,62.33
2022-11-08T00:08:43.961Z,62.38
2022-11-08T00:11:29.815Z,62.21
2022-11-08T00:13:57.390Z,61.95
2022-11-08T00:16:25.959Z,62.20
2022-11-08T00:18:53.265Z,62.02
2022-11-08T00:21:20.934Z,62.04
2022-11-08T00:23:48.282Z,62.03
2022-11-08T00:26:15.579Z,62.11
2022-11-08T00:28:43.153Z,62.39
2022-11-08T00:31:10.462Z,62.64
2022-11-08T00:33:37.760Z,62.40
2022-11-08T00:36:05.705Z,62.57
2022-11-08T00:38:32.991Z,61.97
2022-11-08T00:41:00.340Z,62.28
2022-11-08T00:43:27.925Z,62.06
2022-11-08T00:45:55.217Z,62.05
2022-11-08T00:48:22.517Z,62.49
2022-11-08T00:50:50.094Z,62.40
2022-11-08T00:53:17.388Z,62.16
2022-11-08T00:55:44.679Z,61.92
2022-11-08T00:58:12.427Z,62.37
2022-11-08T01:00:39.744Z,62.41
2022-11-08T01:03:19.273Z,62.43
2022-11-08T01:05:48.342Z,62.75
2022-11-08T01:08:16.729Z,62.22
2022-11-08T01:10:47.330Z,62.10
2022-11-08T01:13:15.242Z,62.43
2022-11-08T01:15:43.962Z,62.44
2022-11-08T01:18:12.993Z,62.29
2022-11-08T01:20:41.848Z,62.49
2022-11-08T01:23:09.838Z,62.57
2022-11-08T01:25:38.723Z,62.51
2022-11-08T01:28:06.344Z,62.28
2022-11-08T01:30:41.304Z,62.23
2022-11-08T01:33:09.258Z,62.29
2022-11-08T01:35:37.273Z,62.48
2022-11-08T01:38:05.992Z,62.19
2022-11-08T01:40:33.993Z,62.12
2022-11-08T01:43:30.114Z,62.02
2022-11-08T01:46:10.163Z,61.86
2022-11-08T01:48:44.520Z,61.77
2022-11-08T01:51:13.987Z,62.21
2022-11-08T01:53:41.580Z,62.12
2022-11-08T01:56:09.398Z,62.10
2022-11-08T01:58:37.713Z,61.89
2022-11-08T02:01:05.164Z,62.06
2022-11-08T02:03:34.385Z,61.85
2022-11-08T02:06:03.752Z,61.98
2022-11-08T02:08:37.863Z,61.60
2022-11-08T02:11:06.358Z,61.67
2022-11-08T02:16:02.683Z,61.56
2022-11-08T02:18:32.027Z,61.63
2022-11-08T02:21:33.137Z,62.22
2022-11-08T02:24:01.882Z,61.73
2022-11-08T02:26:31.717Z,61.48
2022-11-08T02:28:59.504Z,61.59
2022-11-08T02:31:27.046Z,62.19
2022-11-08T02:33:54.339Z,62.17
2022-11-08T02:36:23.135Z,61.76
2022-11-08T02:38:56.011Z,61.60
2022-11-08T02:41:23.329Z,61.75
2022-11-08T02:43:50.887Z,62.17
2022-11-08T02:46:18.315Z,62.10
2022-11-08T02:48:46.306Z,62.03
2022-11-08T02:51:13.872Z,62.01
2022-11-08T02:53:41.495Z,61.63
2022-11-08T02:56:09.044Z,61.27
2022-11-08T02:58:36.622Z,61.36
2022-11-08T03:01:03.973Z,61.21
2022-11-08T03:03:31.379Z,61.67
2022-11-08T03:05:58.960Z,61.42
2022-11-08T03:08:26.278Z,61.57
2022-11-08T03:28:25.951Z,62.42
2022-11-08T03:30:54.015Z,62.76
2022-11-08T03:33:21.599Z,62.77
2022-11-08T03:35:49.866Z,62.98
2022-11-08T03:38:17.655Z,62.91
2022-11-08T03:40:45.616Z,62.82
2022-11-08T03:43:13.168Z,62.72
2022-11-08T03:45:40.737Z,62.90
2022-11-08T03:48:08.076Z,63.23
2022-11-08T03:50:35.429Z,63.43
2022-11-08T03:53:03.523Z,63.38
2022-11-08T03:55:31.066Z,63.51
2022-11-08T03:57:58.357Z,63.52
2022-11-08T04:00:27.892Z,63.77
2022-11-08T04:03:00.905Z,63.76
2022-11-08T04:05:28.194Z,64.16
2022-11-08T04:07:55.763Z,64.69
2022-11-08T04:10:23.107Z,64.65
2022-11-08T04:13:08.826Z,63.93
2022-11-08T04:15:36.422Z,63.81
2022-11-08T04:18:22.468Z,63.40
2022-11-08T04:21:09.008Z,63.39
2022-11-08T04:23:37.234Z,63.59
2022-11-08T04:26:07.045Z,62.66
2022-11-08T04:28:36.606Z,62.03
2022-11-08T04:31:09.758Z,62.41
2022-11-08T04:33:37.394Z,62.43
2022-11-08T04:36:07.513Z,62.67
2022-11-08T04:38:35.052Z,62.79
2022-11-08T04:41:07.899Z,63.22
2022-11-08T04:43:35.477Z,63.38
2022-11-08T04:46:05.790Z,63.52
2022-11-08T04:48:33.456Z,63.86
2022-11-08T04:51:03.643Z,63.20
2022-11-08T04:53:31.599Z,62.70
2022-11-08T04:56:08.438Z,63.61
2022-11-08T04:58:37.924Z,63.25
2022-11-08T05:01:06.303Z,63.38
2022-11-08T05:03:34.561Z,63.21
2022-11-08T05:06:25.742Z,63.68
2022-11-08T05:08:55.223Z,63.96
2022-11-08T05:11:24.431Z,63.74
2022-11-08T05:13:52.162Z,63.78
2022-11-08T05:16:27.806Z,63.75
2022-11-08T05:18:55.769Z,63.79
2022-11-08T05:21:42.391Z,63.98
2022-11-08T05:24:12.692Z,63.97
2022-11-08T05:26:44.735Z,64.02
2022-11-08T05:29:13.749Z,64.10
2022-11-08T05:31:41.533Z,64.02
2022-11-08T05:34:09.058Z,64.36
2022-11-08T05:36:36.618Z,64.17
2022-11-08T05:39:04.347Z,64.23
2022-11-08T05:41:31.865Z,64.42
2022-11-08T05:43:59.470Z,64.59
2022-11-08T05:46:27.002Z,64.50
2022-11-08T05:48:54.435Z,64.95
2022-11-08T05:51:22.065Z,64.73
2022-11-08T05:53:49.483Z,64.47
2022-11-08T05:56:17.503Z,64.54
2022-11-08T05:58:45.596Z,64.45
2022-11-08T06:01:15.013Z,64.85
2022-11-08T06:03:42.682Z,64.81
2022-11-08T06:06:12.237Z,64.74
2022-11-08T06:08:40.459Z,64.92
2022-11-08T06:11:16.219Z,64.60
2022-11-08T06:13:43.754Z,64.67
2022-11-08T06:16:12.954Z,64.52
2022-11-08T06:18:40.534Z,64.62
2022-11-08T06:21:10.795Z,64.52
2022-11-08T06:23:38.381Z,64.36
2022-11-08T06:26:05.770Z,64.84
2022-11-08T06:28:33.212Z,65.22
2022-11-08T06:31:01.826Z,65.33
2022-11-08T06:33:29.536Z,64.90
2022-11-08T06:35:57.295Z,64.63
2022-11-08T06:38:25.040Z,64.44
2022-11-08T06:40:52.407Z,64.56
2022-11-08T06:43:20.432Z,64.94
2022-11-08T06:45:48.316Z,65.09
2022-11-08T06:48:15.673Z,64.68
2022-11-08T06:50:43.141Z,64.78
2022-11-08T06:53:14.666Z,64.70
2022-11-08T06:55:42.067Z,64.84
2022-11-08T06:58:10.350Z,64.83
2022-11-08T07:00:38.272Z,64.79
2022-11-08T07:03:05.645Z,64.57
2022-11-08T07:05:35.007Z,64.55
2022-11-08T07:08:04.626Z,63.90
2022-11-08T07:10:32.882Z,64.30
2022-11-08T07:13:01.325Z,64.41
2022-11-08T07:15:29.181Z,64.56
2022-11-08T07:18:01.169Z,64.15
2022-11-08T07:20:29.197Z,64.55
2022-11-08T07:22:57.428Z,64.72
2022-11-08T07:25:25.439Z,65.80
2022-11-08T07:27:56.847Z,65.33
2022-11-08T07:30:24.350Z,65.64
2022-11-08T07:32:52.182Z,65.26
2022-11-08T07:35:19.785Z,65.25
2022-11-08T07:37:47.279Z,65.51
2022-11-08T07:40:14.742Z,65.24
2022-11-08T07:43:10.093Z,64.67
2022-11-08T07:45:29.909Z,64.31
2022-11-08T07:48:06.672Z,73.76
2022-11-08T07:50:38.541Z,70.23
2022-11-08T07:53:06.134Z,68.44
2022-11-08T07:55:36.144Z,67.63
2022-11-08T07:58:03.737Z,65.79
2022-11-08T08:00:32.474Z,64.55
2022-11-08T08:03:00.735Z,64.70
2022-11-08T08:05:29.608Z,64.58
2022-11-08T08:07:58.058Z,63.56
2022-11-08T08:10:26.421Z,63.65
2022-11-08T08:12:54.327Z,63.37
2022-11-08T08:15:21.843Z,63.53
2022-11-08T08:17:49.431Z,64.26
2022-11-08T08:20:16.821Z,64.14
2022-11-08T08:22:48.333Z,63.58
2022-11-08T08:25:16.607Z,63.69
2022-11-08T08:27:51.946Z,63.91
2022-11-08T08:30:20.187Z,64.11
2022-11-08T08:32:53.469Z,63.85
2022-11-08T08:35:30.531Z,64.24
2022-11-08T08:37:59.771Z,64.28
2022-11-08T08:40:27.895Z,64.58
2022-11-08T08:42:57.587Z,65.11
2022-11-08T08:45:25.246Z,65.10
2022-11-08T08:47:54.104Z,65.84
2022-11-08T08:50:21.988Z,65.53
2022-11-08T08:52:49.593Z,65.26
2022-11-08T08:55:17.516Z,65.55
2022-11-08T08:57:46.530Z,64.86
2022-11-08T09:03:08.293Z,65.05
2022-11-08T09:05:36.939Z,64.92
2022-11-08T09:08:04.805Z,64.78
2022-11-08T09:10:32.143Z,65.22
2022-11-08T09:12:59.465Z,65.18
2022-11-08T09:15:27.031Z,65.37
2022-11-08T09:17:54.529Z,65.86
2022-11-08T09:20:22.782Z,66.22
2022-11-08T09:22:50.358Z,65.68
2022-11-08T09:25:18.119Z,65.51
2022-11-08T09:27:45.425Z,65.26
2022-11-08T09:30:13.289Z,65.45
2022-11-08T09:32:59.654Z,64.75
2022-11-08T09:35:28.272Z,64.80
2022-11-08T09:37:55.876Z,64.29
2022-11-08T09:40:59.954Z,64.55
2022-11-08T09:43:58.647Z,64.56
2022-11-08T09:46:37.539Z,64.85
2022-11-08T09:49:07.587Z,64.43
2022-11-08T09:51:35.634Z,64.64
2022-11-08T09:54:04.967Z,64.90
2022-11-08T09:56:37.584Z,64.29
2022-11-08T09:59:18.236Z,64.28
2022-11-08T10:01:45.871Z,64.38
2022-11-08T10:04:21.578Z,64.38
2022-11-08T10:07:03.929Z,64.65
2022-11-08T10:09:58.299Z,63.72
2022-11-08T10:12:53.537Z,63.74
2022-11-08T10:15:39.381Z,63.39
2022-11-08T10:18:35.909Z,63.62
2022-11-08T10:21:22.253Z,62.82
2022-11-08T10:23:55.525Z,62.90
2022-11-08T10:26:30.542Z,63.57
2022-11-08T10:29:03.507Z,63.74
2022-11-08T10:31:35.105Z,63.15
2022-11-08T10:34:03.490Z,62.70
2022-11-08T10:36:52.231Z,62.52
2022-11-08T10:39:27.946Z,61.44
2022-11-08T10:42:05.388Z,62.19
2022-11-08T10:44:33.870Z,62.79
2022-11-08T10:47:06.759Z,63.01
2022-11-08T10:49:40.557Z,62.08
2022-11-08T10:52:23.160Z,61.68
2022-11-08T10:54:52.501Z,61.99
2022-11-08T10:57:32.294Z,61.42
2022-11-08T11:00:21.332Z,61.39
2022-11-08T11:02:52.215Z,61.70
2022-11-08T11:05:19.362Z,61.69
2022-11-08T11:07:59.260Z,62.11
2022-11-08T11:10:44.943Z,62.82
2022-11-08T11:13:21.862Z,62.25
2022-11-08T11:15:52.188Z,62.44
2022-11-08T11:18:35.905Z,62.23
2022-11-08T11:21:19.150Z,62.54
2022-11-08T11:23:54.617Z,63.19
2022-11-08T11:26:44.923Z,64.01
2022-11-08T11:29:17.208Z,65.80
2022-11-08T11:31:47.051Z,62.40
2022-11-08T11:34:17.245Z,60.17
2022-11-08T11:36:57.339Z,59.78
2022-11-08T11:39:35.527Z,59.88
2022-11-08T11:45:19.700Z,58.72
2022-11-08T11:47:53.409Z,59.24
2022-11-08T11:50:29.731Z,60.15
2022-11-08T11:52:58.396Z,60.08
2022-11-08T11:55:34.372Z,59.92
2022-11-08T11:58:26.573Z,60.42
2022-11-08T12:00:59.181Z,60.74
2022-11-08T12:03:31.965Z,60.81
2022-11-08T12:06:05.416Z,60.60
2022-11-08T12:09:25.482Z,60.48
2022-11-08T12:11:59.367Z,60.69
2022-11-08T12:14:54.305Z,60.87
2022-11-08T12:17:56.566Z,61.07
2022-11-08T12:20:53.349Z,61.22
2022-11-08T12:23:24.610Z,61.46
2022-11-08T12:26:15.587Z,61.74
2022-11-08T12:29:01.475Z,61.68
2022-11-08T12:31:35.649Z,61.67
2022-11-08T12:34:18.236Z,61.72
2022-11-08T12:36:58.835Z,62.12
2022-11-08T12:39:40.939Z,61.96
2022-11-08T12:42:25.292Z,62.92
2022-11-08T12:44:55.999Z,63.14
2022-11-08T12:47:46.202Z,62.48
2022-11-08T12:50:36.955Z,63.15
2022-11-08T12:53:13.683Z,63.70
2022-11-08T12:55:42.044Z,64.51
2022-11-08T12:58:24.701Z,64.49
2022-11-08T13:00:54.811Z,64.75
2022-11-08T13:03:38.410Z,64.48
2022-11-08T13:06:10.871Z,64.35
2022-11-08T13:08:46.026Z,64.43
2022-11-08T13:11:20.767Z,64.95
2022-11-08T13:13:56.106Z,64.16
2022-11-08T13:16:39.167Z,64.45
2022-11-08T13:19:09.779Z,63.97
2022-11-08T13:21:41.963Z,65.06
2022-11-08T13:24:42.264Z,64.14
2022-11-08T13:27:21.761Z,64.33
2022-11-08T13:29:49.907Z,64.32
2022-11-08T13:32:55.361Z,64.28
2022-11-08T13:35:35.205Z,64.16
2022-11-08T13:38:13.311Z,63.55
2022-11-08T13:41:16.813Z,63.83
2022-11-08T13:43:44.719Z,63.71
2022-11-08T13:46:27.738Z,63.93
2022-11-08T13:48:57.918Z,63.71
2022-11-08T13:51:46.157Z,63.34
2022-11-08T13:54:22.610Z,63.15
2022-11-08T13:56:56.424Z,62.90
2022-11-08T13:59:33.019Z,63.44
2022-11-08T14:02:05.424Z,63.55
2022-11-08T14:04:40.503Z,63.42
2022-11-08T14:07:16.076Z,63.71
2022-11-08T14:09:51.794Z,62.79
2022-11-08T14:12:40.893Z,63.27
2022-11-08T14:15:14.362Z,63.44
2022-11-08T14:17:47.804Z,63.50
2022-11-08T14:20:18.025Z,63.77
2022-11-08T14:22:49.930Z,63.39
2022-11-08T14:25:38.766Z,63.59
2022-11-08T14:28:21.562Z,63.06
2022-11-08T14:30:50.905Z,63.09
2022-11-08T14:33:21.159Z,62.32
2022-11-08T14:35:54.071Z,62.34
2022-11-08T14:38:21.510Z,62.56
2022-11-08T14:40:51.562Z,62.47
2022-11-08T14:43:20.504Z,62.25
2022-11-08T14:45:48.202Z,62.83
2022-11-08T14:48:24.672Z,62.77
2022-11-08T14:50:58.497Z,63.46
2022-11-08T14:53:28.893Z,63.53
2022-11-08T14:56:02.414Z,63.39
2022-11-08T14:58:30.224Z,63.26
2022-11-08T15:00:57.971Z,63.99
2022-11-08T15:03:29.105Z,63.92
2022-11-08T15:06:02.109Z,63.57
2022-11-08T15:08:35.150Z,63.39
2022-11-08T15:11:05.746Z,63.25
2022-11-08T15:13:40.658Z,62.70
2022-11-08T15:16:08.874Z,62.57
2022-11-08T15:18:38.770Z,63.05
2022-11-08T15:21:28.555Z,62.64
2022-11-08T15:24:15.805Z,62.43
2022-11-08T15:27:06.228Z,62.41
2022-11-08T15:29:53.079Z,62.35
2022-11-08T15:32:22.018Z,62.12
2022-11-08T15:34:54.295Z,62.63
2022-11-08T15:37:27.561Z,61.96
2022-11-08T15:39:55.837Z,62.17
2022-11-08T15:42:23.243Z,62.72
2022-11-08T15:45:26.155Z,62.74
2022-11-08T15:48:00.699Z,62.62
2022-11-08T15:50:32.313Z,63.79
2022-11-08T15:53:02.003Z,63.25
2022-11-08T15:55:36.590Z,64.11
2022-11-08T15:58:04.738Z,64.15
2022-11-08T16:00:34.479Z,64.35
2022-11-08T16:03:03.052Z,64.65
2022-11-08T16:05:33.921Z,64.64
2022-11-08T16:08:01.554Z,64.93
2022-11-08T16:10:31.371Z,65.04
2022-11-08T16:13:01.845Z,65.08
2022-11-08T16:15:32.251Z,65.25
2022-11-08T16:18:00.814Z,65.19
2022-11-08T16:20:36.215Z,65.39
2022-11-08T16:23:09.529Z,65.28
2022-11-08T16:25:39.246Z,65.12
2022-11-08T16:28:10.262Z,65.39
2022-11-08T16:30:37.746Z,65.48
2022-11-08T16:33:19.293Z,65.39
2022-11-08T16:35:47.176Z,65.77
2022-11-08T16:38:14.529Z,65.83
2022-11-08T16:40:42.130Z,66.47
2022-11-08T16:43:12.777Z,66.19
2022-11-08T16:46:03.811Z,66.38
2022-11-08T16:48:27.632Z,65.99
2022-11-08T16:51:02.464Z,66.18
2022-11-08T16:53:30.265Z,65.78
2022-11-08T16:55:57.983Z,65.60
2022-11-08T16:58:26.144Z,66.07
2022-11-08T17:00:53.866Z,66.24
2022-11-08T17:03:22.882Z,66.03
2022-11-08T17:05:50.298Z,66.69
2022-11-08T17:08:18.332Z,66.29
2022-11-08T17:10:45.977Z,66.61
2022-11-08T17:13:18.114Z,66.47
2022-11-08T17:15:46.272Z,66.68
2022-11-08T17:18:16.857Z,66.30
2022-11-08T17:20:44.544Z,66.83
2022-11-08T17:23:12.340Z,66.67
2022-11-08T17:25:42.872Z,66.41
2022-11-08T17:28:12.402Z,66.97
2022-11-08T17:30:44.605Z,67.29
2022-11-08T17:33:12.696Z,66.91
2022-11-08T17:35:43.994Z,66.68
2022-11-08T17:38:12.812Z,66.75
2022-11-08T17:40:42.222Z,66.79
2022-11-08T17:43:09.978Z,66.64
2022-11-08T17:45:39.783Z,66.45
2022-11-08T17:48:07.317Z,66.79
2022-11-08T17:50:34.610Z,67.26
2022-11-08T17:53:01.905Z,67.58
2022-11-08T17:55:29.471Z,67.50
2022-11-08T17:57:56.754Z,67.02
2022-11-08T18:00:24.051Z,67.22
2022-11-08T18:02:51.682Z,67.91
2022-11-08T18:05:18.979Z,68.09
2022-11-08T18:07:46.528Z,68.14
2022-11-08T18:10:14.206Z,68.08
2022-11-08T18:12:41.481Z,67.74
2022-11-08T18:15:09.388Z,67.73
2022-11-08T18:17:36.968Z,67.84
2022-11-08T18:20:04.496Z,67.70
2022-11-08T18:22:32.677Z,67.93
2022-11-08T18:25:00.284Z,67.42
2022-11-08T18:27:27.890Z,67.09
2022-11-08T18:29:55.232Z,67.01
2022-11-08T18:32:22.865Z,67.26
2022-11-08T18:34:50.145Z,67.50
2022-11-08T18:37:17.438Z,67.91
2022-11-08T18:39:47.990Z,67.61
2022-11-08T18:42:18.329Z,67.23
2022-11-08T18:44:45.890Z,66.97
2022-11-08T18:47:13.402Z,67.05
2022-11-08T18:49:40.716Z,67.23
2022-11-08T18:52:08.457Z,66.79
2022-11-08T18:54:35.788Z,67.66
2022-11-08T18:57:03.169Z,67.55
2022-11-08T18:59:30.780Z,67.95
2022-11-08T19:01:58.455Z,67.32
2022-11-08T19:05:21.605Z,65.64
2022-11-08T19:07:49.378Z,65.64
2022-11-08T19:10:16.685Z,67.50
2022-11-08T19:12:43.998Z,69.05
2022-11-08T19:15:11.582Z,68.44
2022-11-08T19:17:39.033Z,67.08
2022-11-08T19:20:07.029Z,67.75
2022-11-08T19:22:34.643Z,68.33
2022-11-08T19:25:02.156Z,68.37
2022-11-08T19:27:29.628Z,68.14
2022-11-08T19:30:00.274Z,67.71
2022-11-08T19:32:27.657Z,67.63
2022-11-08T19:34:54.939Z,67.78
2022-11-08T19:37:22.507Z,68.08
2022-11-08T19:39:49.838Z,67.54
2022-11-08T19:42:17.203Z,67.19
2022-11-08T19:44:44.758Z,67.54
2022-11-08T19:47:12.047Z,67.52
2022-11-08T19:49:39.364Z,67.57
2022-11-08T19:52:06.930Z,67.63
2022-11-08T19:54:34.294Z,67.61
2022-11-08T19:57:04.877Z,66.96
2022-11-08T19:59:33.346Z,67.62
2022-11-08T20:02:00.737Z,66.82
2022-11-08T20:04:28.404Z,67.21
2022-11-08T20:06:55.818Z,67.46
2022-11-08T20:09:28.985Z,67.02
2022-11-08T20:11:58.422Z,67.31
2022-11-08T20:14:25.783Z,67.46
2022-11-08T20:16:54.105Z,67.26
2022-11-08T20:19:21.764Z,66.95
2022-11-08T20:21:49.411Z,67.39
2022-11-08T20:24:16.995Z,68.17
2022-11-08T20:26:45.081Z,68.05
2022-11-08T20:29:13.269Z,67.66
2022-11-08T20:31:42.471Z,68.00
2022-11-08T20:34:11.755Z,67.63
2022-11-08T20:36:40.872Z,67.83
2022-11-08T20:39:08.377Z,67.22
2022-11-08T20:41:37.432Z,67.12
2022-11-08T20:44:06.239Z,67.30
2022-11-08T20:46:34.131Z,67.19
2022-11-08T20:49:04.965Z,67.04
2022-11-08T20:51:32.610Z,67.10
2022-11-08T20:54:00.611Z,66.32
2022-11-08T20:56:29.028Z,66.33
2022-11-08T20:58:56.877Z,66.18
2022-11-08T21:01:27.900Z,66.06
2022-11-08T21:03:56.019Z,66.27
2022-11-08T21:06:25.690Z,66.38
2022-11-08T21:09:00.798Z,65.78
2022-11-08T21:11:32.162Z,66.24
2022-11-08T21:13:59.521Z,66.00
2022-11-08T21:16:35.054Z,65.91
2022-11-08T21:19:10.246Z,66.09
2022-11-08T21:21:37.637Z,66.12
2022-11-08T21:24:05.164Z,66.00
2022-11-08T21:26:36.180Z,66.39
2022-11-08T21:29:04.729Z,65.65
2022-11-08T21:31:32.748Z,65.84
2022-11-08T21:34:00.449Z,66.39
2022-11-08T21:36:29.037Z,66.22
2022-11-08T21:38:56.481Z,66.12
2022-11-08T21:41:24.158Z,65.94
2022-11-08T21:43:51.515Z,65.96
2022-11-08T21:46:21.849Z,66.05
2022-11-08T21:48:56.635Z,66.28
2022-11-08T21:51:24.843Z,65.77
2022-11-08T21:53:56.885Z,65.96
2022-11-08T21:56:26.302Z,65.66
2022-11-08T21:58:54.056Z,65.90
2022-11-08T22:01:25.358Z,65.60
2022-11-08T22:03:56.381Z,65.51
2022-11-08T22:06:23.927Z,65.54
2022-11-08T22:08:51.343Z,65.67
2022-11-08T22:11:18.942Z,65.86
2022-11-08T22:13:46.265Z,66.05
2022-11-08T22:16:13.699Z,65.86
2022-11-08T22:21:43.192Z,66.04
2022-11-08T22:24:12.152Z,65.54
2022-11-08T22:26:40.557Z,65.57
2022-11-08T22:29:08.200Z,65.54
2022-11-08T22:31:36.623Z,66.00
2022-11-08T22:34:05.303Z,65.59
2022-11-08T22:36:32.699Z,65.82
2022-11-08T22:39:00.401Z,65.70
2022-11-08T22:41:28.140Z,65.77
2022-11-08T22:43:55.451Z,65.85
2022-11-08T22:46:23.268Z,66.68
2022-11-08T22:48:50.805Z,65.89
2022-11-08T22:51:18.133Z,66.06
2022-11-08T22:53:45.922Z,66.83
2022-11-08T22:56:13.252Z,67.02
2022-11-08T22:58:40.638Z,66.54
2022-11-08T23:01:11.388Z,66.42
2022-11-08T23:03:39.012Z,67.29
2022-11-08T23:06:06.821Z,67.04
2022-11-08T23:08:34.436Z,67.58
2022-11-08T23:11:20.730Z,67.19
2022-11-08T23:14:06.623Z,67.53
2022-11-08T23:16:37.674Z,67.61
2022-11-08T23:19:31.561Z,67.97
2022-11-08T23:22:18.011Z,68.14
2022-11-08T23:24:46.054Z,68.01
2022-11-08T23:27:33.871Z,67.67
2022-11-08T23:30:20.314Z,67.83
2022-11-08T23:32:49.443Z,68.19
2022-11-08T23:35:19.366Z,67.73
2022-11-08T23:37:47.017Z,67.83
2022-11-08T23:40:34.272Z,67.06
2022-11-08T23:43:40.950Z,67.01
2022-11-08T23:46:12.469Z,68.11
2022-11-08T23:48:40.532Z,67.73
2022-11-08T23:51:08.405Z,68.03
2022-11-08T23:53:39.978Z,68.07
2022-11-08T23:56:07.673Z,68.02
2022-11-08T23:58:34.993Z,67.98
